sensor_id;sensor_type;location;lat;lon;timestamp;P1;durP1;ratioP1;P2;durP2;ratioP2
53287;SDS011;39172;45.550;12.072;2023-09-19T00:06:01;4.28;;;2.15;;
53287;SDS011;39172;45.550;12.072;2023-09-19T00:12:03;5.07;;;2.35;;
53287;SDS011;39172;45.550;12.072;2023-09-19T00:18:04;3.47;;;1.80;;
53287;SDS011;39172;45.550;12.072;2023-09-19T00:24:08;3.90;;;2.10;;
53287;SDS011;39172;45.550;12.072;2023-09-19T00:30:10;3.88;;;2.00;;
53287;SDS011;39172;45.550;12.072;2023-09-19T00:36:15;2.78;;;2.00;;
53287;SDS011;39172;45.550;12.072;2023-09-19T00:42:22;3.05;;;1.90;;
53287;SDS011;39172;45.550;12.072;2023-09-19T00:48:24;3.53;;;2.20;;
53287;SDS011;39172;45.550;12.072;2023-09-19T00:54:28;3.70;;;2.30;;
53287;SDS011;39172;45.550;12.072;2023-09-19T01:00:29;4.63;;;2.17;;
53287;SDS011;39172;45.550;12.072;2023-09-19T01:06:30;3.97;;;2.30;;
53287;SDS011;39172;45.550;12.072;2023-09-19T01:12:34;2.58;;;1.95;;
53287;SDS011;39172;45.550;12.072;2023-09-19T01:25:02;3.15;;;1.80;;
53287;SDS011;39172;45.550;12.072;2023-09-19T01:31:09;4.40;;;2.20;;
53287;SDS011;39172;45.550;12.072;2023-09-19T01:37:10;2.65;;;1.90;;
53287;SDS011;39172;45.550;12.072;2023-09-19T01:43:13;3.40;;;2.50;;
53287;SDS011;39172;45.550;12.072;2023-09-19T01:49:34;3.00;;;2.67;;
53287;SDS011;39172;45.550;12.072;2023-09-19T01:55:37;4.78;;;2.65;;
53287;SDS011;39172;45.550;12.072;2023-09-19T02:01:44;3.90;;;2.60;;
53287;SDS011;39172;45.550;12.072;2023-09-19T02:07:46;4.85;;;2.83;;
53287;SDS011;39172;45.550;12.072;2023-09-19T02:13:47;3.45;;;2.30;;
53287;SDS011;39172;45.550;12.072;2023-09-19T02:19:48;2.60;;;1.85;;
53287;SDS011;39172;45.550;12.072;2023-09-19T02:25:55;3.05;;;2.45;;
53287;SDS011;39172;45.550;12.072;2023-09-19T02:31:58;2.58;;;1.60;;
53287;SDS011;39172;45.550;12.072;2023-09-19T02:37:59;2.55;;;1.90;;
53287;SDS011;39172;45.550;12.072;2023-09-19T02:44:00;2.17;;;1.50;;
53287;SDS011;39172;45.550;12.072;2023-09-19T02:50:04;4.38;;;2.30;;
53287;SDS011;39172;45.550;12.072;2023-09-19T02:56:05;4.57;;;2.72;;
53287;SDS011;39172;45.550;12.072;2023-09-19T03:02:06;4.90;;;2.80;;
53287;SDS011;39172;45.550;12.072;2023-09-19T03:08:07;4.43;;;2.60;;
53287;SDS011;39172;45.550;12.072;2023-09-19T03:14:08;5.43;;;2.28;;
53287;SDS011;39172;45.550;12.072;2023-09-19T03:20:12;4.95;;;2.03;;
53287;SDS011;39172;45.550;12.072;2023-09-19T03:26:16;4.18;;;2.00;;
53287;SDS011;39172;45.550;12.072;2023-09-19T03:32:18;3.88;;;2.10;;
53287;SDS011;39172;45.550;12.072;2023-09-19T03:38:19;3.88;;;1.90;;
53287;SDS011;39172;45.550;12.072;2023-09-19T03:44:20;2.67;;;1.50;;
53287;SDS011;39172;45.550;12.072;2023-09-19T03:50:21;4.05;;;1.90;;
53287;SDS011;39172;45.550;12.072;2023-09-19T03:56:23;1.83;;;1.33;;
53287;SDS011;39172;45.550;12.072;2023-09-19T04:02:24;1.90;;;1.17;;
53287;SDS011;39172;45.550;12.072;2023-09-19T04:08:26;2.47;;;1.63;;
53287;SDS011;39172;45.550;12.072;2023-09-19T04:14:27;2.75;;;1.35;;
53287;SDS011;39172;45.550;12.072;2023-09-19T04:20:28;2.03;;;1.60;;
53287;SDS011;39172;45.550;12.072;2023-09-19T04:26:29;2.35;;;1.70;;
53287;SDS011;39172;45.550;12.072;2023-09-19T04:32:30;2.95;;;1.92;;
53287;SDS011;39172;45.550;12.072;2023-09-19T04:38:33;3.03;;;2.38;;
53287;SDS011;39172;45.550;12.072;2023-09-19T04:44:34;3.95;;;2.50;;
53287;SDS011;39172;45.550;12.072;2023-09-19T04:50:35;3.53;;;2.50;;
53287;SDS011;39172;45.550;12.072;2023-09-19T04:56:37;4.85;;;3.00;;
53287;SDS011;39172;45.550;12.072;2023-09-19T05:02:41;4.78;;;3.08;;
53287;SDS011;39172;45.550;12.072;2023-09-19T05:08:42;4.07;;;2.72;;
53287;SDS011;39172;45.550;12.072;2023-09-19T05:14:43;2.75;;;2.17;;
53287;SDS011;39172;45.550;12.072;2023-09-19T05:20:44;3.63;;;2.60;;
53287;SDS011;39172;45.550;12.072;2023-09-19T05:26:45;2.90;;;2.20;;
53287;SDS011;39172;45.550;12.072;2023-09-19T05:32:46;3.15;;;2.40;;
53287;SDS011;39172;45.550;12.072;2023-09-19T05:38:47;3.35;;;2.53;;
53287;SDS011;39172;45.550;12.072;2023-09-19T05:44:50;3.65;;;2.63;;
53287;SDS011;39172;45.550;12.072;2023-09-19T05:50:51;3.30;;;2.72;;
53287;SDS011;39172;45.550;12.072;2023-09-19T05:56:52;4.65;;;3.40;;
53287;SDS011;39172;45.550;12.072;2023-09-19T06:02:54;3.17;;;2.85;;
53287;SDS011;39172;45.550;12.072;2023-09-19T06:08:56;4.35;;;3.20;;
53287;SDS011;39172;45.550;12.072;2023-09-19T06:14:58;4.82;;;3.30;;
53287;SDS011;39172;45.550;12.072;2023-09-19T06:20:59;4.25;;;3.58;;
53287;SDS011;39172;45.550;12.072;2023-09-19T06:27:01;4.18;;;3.63;;
53287;SDS011;39172;45.550;12.072;2023-09-19T06:33:02;4.45;;;3.17;;
53287;SDS011;39172;45.550;12.072;2023-09-19T06:39:04;3.70;;;3.00;;
53287;SDS011;39172;45.550;12.072;2023-09-19T06:45:06;4.47;;;2.90;;
53287;SDS011;39172;45.550;12.072;2023-09-19T06:51:07;4.55;;;3.00;;
53287;SDS011;39172;45.550;12.072;2023-09-19T06:57:08;3.20;;;2.90;;
53287;SDS011;39172;45.550;12.072;2023-09-19T07:03:10;4.38;;;3.08;;
53287;SDS011;39172;45.550;12.072;2023-09-19T07:09:14;3.70;;;3.17;;
53287;SDS011;39172;45.550;12.072;2023-09-19T07:15:15;5.60;;;3.67;;
53287;SDS011;39172;45.550;12.072;2023-09-19T07:21:15;4.05;;;3.65;;
53287;SDS011;39172;45.550;12.072;2023-09-19T07:27:16;4.28;;;3.10;;
53287;SDS011;39172;45.550;12.072;2023-09-19T07:33:17;4.03;;;3.58;;
53287;SDS011;39172;45.550;12.072;2023-09-19T07:39:18;10.13;;;7.22;;
53287;SDS011;39172;45.550;12.072;2023-09-19T07:45:19;9.32;;;7.15;;
53287;SDS011;39172;45.550;12.072;2023-09-19T07:51:20;9.50;;;6.90;;
53287;SDS011;39172;45.550;12.072;2023-09-19T07:57:21;10.00;;;7.07;;
53287;SDS011;39172;45.550;12.072;2023-09-19T08:03:22;10.98;;;6.47;;
53287;SDS011;39172;45.550;12.072;2023-09-19T08:09:23;8.82;;;6.28;;
53287;SDS011;39172;45.550;12.072;2023-09-19T08:15:24;10.02;;;6.20;;
53287;SDS011;39172;45.550;12.072;2023-09-19T08:21:25;8.38;;;6.43;;
53287;SDS011;39172;45.550;12.072;2023-09-19T08:27:29;8.40;;;5.75;;
53287;SDS011;39172;45.550;12.072;2023-09-19T08:33:32;7.78;;;6.03;;
53287;SDS011;39172;45.550;12.072;2023-09-19T08:39:33;10.45;;;5.75;;
53287;SDS011;39172;45.550;12.072;2023-09-19T08:45:37;8.95;;;6.15;;
53287;SDS011;39172;45.550;12.072;2023-09-19T08:57:40;10.15;;;5.82;;
53287;SDS011;39172;45.550;12.072;2023-09-19T09:03:43;8.15;;;5.55;;
53287;SDS011;39172;45.550;12.072;2023-09-19T09:09:47;8.50;;;5.75;;
53287;SDS011;39172;45.550;12.072;2023-09-19T09:15:49;6.05;;;4.10;;
53287;SDS011;39172;45.550;12.072;2023-09-19T09:21:51;5.30;;;3.83;;
53287;SDS011;39172;45.550;12.072;2023-09-19T09:27:58;4.88;;;3.70;;
53287;SDS011;39172;45.550;12.072;2023-09-19T09:34:01;6.28;;;4.50;;
53287;SDS011;39172;45.550;12.072;2023-09-19T09:40:02;6.05;;;4.28;;
53287;SDS011;39172;45.550;12.072;2023-09-19T09:46:16;5.25;;;4.20;;
53287;SDS011;39172;45.550;12.072;2023-09-19T09:52:44;4.28;;;3.88;;
53287;SDS011;39172;45.550;12.072;2023-09-19T10:04:49;4.40;;;3.55;;
53287;SDS011;39172;45.550;12.072;2023-09-19T10:10:53;5.80;;;4.18;;
53287;SDS011;39172;45.550;12.072;2023-09-19T10:16:54;6.55;;;4.60;;
53287;SDS011;39172;45.550;12.072;2023-09-19T10:23:03;7.10;;;4.50;;
53287;SDS011;39172;45.550;12.072;2023-09-19T10:29:05;5.13;;;3.90;;
53287;SDS011;39172;45.550;12.072;2023-09-19T10:35:08;4.47;;;3.35;;
53287;SDS011;39172;45.550;12.072;2023-09-19T10:41:09;4.40;;;3.67;;
53287;SDS011;39172;45.550;12.072;2023-09-19T10:47:11;3.85;;;3.30;;
53287;SDS011;39172;45.550;12.072;2023-09-19T10:53:12;4.00;;;3.00;;
53287;SDS011;39172;45.550;12.072;2023-09-19T10:59:20;3.38;;;3.08;;
53287;SDS011;39172;45.550;12.072;2023-09-19T11:05:21;5.23;;;3.10;;
53287;SDS011;39172;45.550;12.072;2023-09-19T11:11:39;4.15;;;3.30;;
53287;SDS011;39172;45.550;12.072;2023-09-19T11:17:41;3.78;;;3.28;;
53287;SDS011;39172;45.550;12.072;2023-09-19T11:23:42;4.72;;;3.50;;
53287;SDS011;39172;45.550;12.072;2023-09-19T11:29:44;3.40;;;3.08;;
53287;SDS011;39172;45.550;12.072;2023-09-19T11:42:01;6.20;;;4.20;;
53287;SDS011;39172;45.550;12.072;2023-09-19T11:48:23;5.82;;;3.45;;
53287;SDS011;39172;45.550;12.072;2023-09-19T11:54:26;5.43;;;3.47;;
53287;SDS011;39172;45.550;12.072;2023-09-19T12:00:29;4.40;;;2.95;;
53287;SDS011;39172;45.550;12.072;2023-09-19T12:06:30;3.88;;;2.95;;
53287;SDS011;39172;45.550;12.072;2023-09-19T12:12:33;4.53;;;2.50;;
53287;SDS011;39172;45.550;12.072;2023-09-19T12:18:34;3.72;;;2.40;;
53287;SDS011;39172;45.550;12.072;2023-09-19T12:24:36;3.45;;;2.30;;
53287;SDS011;39172;45.550;12.072;2023-09-19T12:30:41;2.90;;;2.20;;
53287;SDS011;39172;45.550;12.072;2023-09-19T12:36:42;2.63;;;2.20;;
53287;SDS011;39172;45.550;12.072;2023-09-19T12:42:43;6.75;;;2.70;;
53287;SDS011;39172;45.550;12.072;2023-09-19T12:48:45;3.63;;;2.22;;
53287;SDS011;39172;45.550;12.072;2023-09-19T12:54:48;3.10;;;2.10;;
53287;SDS011;39172;45.550;12.072;2023-09-19T13:00:51;5.80;;;2.30;;
53287;SDS011;39172;45.550;12.072;2023-09-19T13:06:53;3.03;;;2.00;;
53287;SDS011;39172;45.550;12.072;2023-09-19T13:12:55;3.50;;;1.90;;
53287;SDS011;39172;45.550;12.072;2023-09-19T13:19:34;3.08;;;2.00;;
53287;SDS011;39172;45.550;12.072;2023-09-19T13:25:35;4.70;;;2.28;;
53287;SDS011;39172;45.550;12.072;2023-09-19T13:31:36;3.25;;;1.58;;
53287;SDS011;39172;45.550;12.072;2023-09-19T13:37:42;2.38;;;1.85;;
53287;SDS011;39172;45.550;12.072;2023-09-19T13:43:43;5.78;;;2.35;;
53287;SDS011;39172;45.550;12.072;2023-09-19T13:49:48;2.97;;;1.63;;
53287;SDS011;39172;45.550;12.072;2023-09-19T13:55:51;3.25;;;1.80;;
53287;SDS011;39172;45.550;12.072;2023-09-19T14:01:52;2.65;;;1.75;;
53287;SDS011;39172;45.550;12.072;2023-09-19T14:07:54;2.92;;;1.88;;
53287;SDS011;39172;45.550;12.072;2023-09-19T14:13:59;3.83;;;1.80;;
53287;SDS011;39172;45.550;12.072;2023-09-19T14:20:01;1.90;;;1.67;;
53287;SDS011;39172;45.550;12.072;2023-09-19T14:26:02;3.38;;;2.03;;
53287;SDS011;39172;45.550;12.072;2023-09-19T14:32:03;5.32;;;1.92;;
53287;SDS011;39172;45.550;12.072;2023-09-19T14:38:04;2.75;;;1.75;;
53287;SDS011;39172;45.550;12.072;2023-09-19T14:44:05;3.13;;;1.80;;
53287;SDS011;39172;45.550;12.072;2023-09-19T14:50:06;3.55;;;2.05;;
53287;SDS011;39172;45.550;12.072;2023-09-19T14:56:07;3.05;;;1.90;;
53287;SDS011;39172;45.550;12.072;2023-09-19T15:02:08;3.08;;;1.90;;
53287;SDS011;39172;45.550;12.072;2023-09-19T15:08:09;3.20;;;1.67;;
53287;SDS011;39172;45.550;12.072;2023-09-19T15:14:11;4.95;;;2.03;;
53287;SDS011;39172;45.550;12.072;2023-09-19T15:20:12;4.60;;;2.67;;
53287;SDS011;39172;45.550;12.072;2023-09-19T15:26:14;4.93;;;2.60;;
53287;SDS011;39172;45.550;12.072;2023-09-19T15:32:21;5.00;;;2.42;;
53287;SDS011;39172;45.550;12.072;2023-09-19T15:38:21;5.40;;;2.40;;
53287;SDS011;39172;45.550;12.072;2023-09-19T15:44:22;6.25;;;2.63;;
53287;SDS011;39172;45.550;12.072;2023-09-19T15:50:24;6.28;;;2.90;;
53287;SDS011;39172;45.550;12.072;2023-09-19T15:56:26;5.03;;;2.25;;
53287;SDS011;39172;45.550;12.072;2023-09-19T16:02:27;4.90;;;1.83;;
53287;SDS011;39172;45.550;12.072;2023-09-19T16:08:29;2.90;;;1.70;;
53287;SDS011;39172;45.550;12.072;2023-09-19T16:14:31;2.25;;;1.60;;
53287;SDS011;39172;45.550;12.072;2023-09-19T16:20:32;3.00;;;1.40;;
53287;SDS011;39172;45.550;12.072;2023-09-19T16:26:34;3.67;;;1.63;;
53287;SDS011;39172;45.550;12.072;2023-09-19T16:32:35;2.75;;;1.40;;
53287;SDS011;39172;45.550;12.072;2023-09-19T16:38:37;3.70;;;1.70;;
53287;SDS011;39172;45.550;12.072;2023-09-19T16:44:38;2.28;;;1.30;;
53287;SDS011;39172;45.550;12.072;2023-09-19T16:50:39;1.70;;;1.35;;
53287;SDS011;39172;45.550;12.072;2023-09-19T16:56:40;2.50;;;1.35;;
53287;SDS011;39172;45.550;12.072;2023-09-19T17:02:41;2.35;;;1.10;;
53287;SDS011;39172;45.550;12.072;2023-09-19T17:08:42;2.40;;;1.30;;
53287;SDS011;39172;45.550;12.072;2023-09-19T17:14:45;1.98;;;1.30;;
53287;SDS011;39172;45.550;12.072;2023-09-19T17:20:46;3.55;;;1.35;;
53287;SDS011;39172;45.550;12.072;2023-09-19T17:26:47;2.50;;;1.35;;
53287;SDS011;39172;45.550;12.072;2023-09-19T17:32:48;3.85;;;1.40;;
53287;SDS011;39172;45.550;12.072;2023-09-19T17:38:50;1.88;;;1.30;;
53287;SDS011;39172;45.550;12.072;2023-09-19T17:44:51;2.25;;;1.60;;
53287;SDS011;39172;45.550;12.072;2023-09-19T17:50:59;2.10;;;1.38;;
53287;SDS011;39172;45.550;12.072;2023-09-19T17:57:00;2.05;;;1.35;;
53287;SDS011;39172;45.550;12.072;2023-09-19T18:03:02;3.72;;;1.55;;
53287;SDS011;39172;45.550;12.072;2023-09-19T18:09:04;2.92;;;1.30;;
53287;SDS011;39172;45.550;12.072;2023-09-19T18:15:08;1.77;;;1.10;;
53287;SDS011;39172;45.550;12.072;2023-09-19T18:21:09;1.30;;;1.02;;
53287;SDS011;39172;45.550;12.072;2023-09-19T18:27:13;3.35;;;1.48;;
53287;SDS011;39172;45.550;12.072;2023-09-19T18:33:14;2.92;;;1.55;;
53287;SDS011;39172;45.550;12.072;2023-09-19T18:39:15;2.75;;;1.45;;
53287;SDS011;39172;45.550;12.072;2023-09-19T18:45:26;3.20;;;1.70;;
53287;SDS011;39172;45.550;12.072;2023-09-19T18:51:27;1.58;;;1.00;;
53287;SDS011;39172;45.550;12.072;2023-09-19T18:57:28;1.88;;;1.10;;
53287;SDS011;39172;45.550;12.072;2023-09-19T19:03:29;2.83;;;1.30;;
53287;SDS011;39172;45.550;12.072;2023-09-19T19:09:41;1.27;;;0.80;;
53287;SDS011;39172;45.550;12.072;2023-09-19T19:15:53;2.47;;;1.63;;
53287;SDS011;39172;45.550;12.072;2023-09-19T19:22:14;1.65;;;1.10;;
53287;SDS011;39172;45.550;12.072;2023-09-19T19:28:17;1.60;;;1.20;;
53287;SDS011;39172;45.550;12.072;2023-09-19T19:34:23;2.38;;;1.38;;
53287;SDS011;39172;45.550;12.072;2023-09-19T19:40:25;1.85;;;1.35;;
53287;SDS011;39172;45.550;12.072;2023-09-19T19:46:32;1.75;;;1.17;;
53287;SDS011;39172;45.550;12.072;2023-09-19T19:52:38;3.17;;;1.45;;
53287;SDS011;39172;45.550;12.072;2023-09-19T19:58:39;3.53;;;1.63;;
53287;SDS011;39172;45.550;12.072;2023-09-19T20:04:43;4.70;;;3.20;;
53287;SDS011;39172;45.550;12.072;2023-09-19T20:10:45;4.97;;;2.60;;
53287;SDS011;39172;45.550;12.072;2023-09-19T20:16:48;3.08;;;2.30;;
53287;SDS011;39172;45.550;12.072;2023-09-19T20:22:51;2.72;;;2.10;;
53287;SDS011;39172;45.550;12.072;2023-09-19T20:28:55;2.40;;;1.90;;
53287;SDS011;39172;45.550;12.072;2023-09-19T20:35:10;2.83;;;2.22;;
53287;SDS011;39172;45.550;12.072;2023-09-19T20:41:15;2.88;;;2.00;;
53287;SDS011;39172;45.550;12.072;2023-09-19T20:47:21;3.30;;;2.30;;
53287;SDS011;39172;45.550;12.072;2023-09-19T20:53:22;2.53;;;1.90;;
53287;SDS011;39172;45.550;12.072;2023-09-19T20:59:26;2.30;;;2.10;;
53287;SDS011;39172;45.550;12.072;2023-09-19T21:05:27;1.83;;;1.55;;
53287;SDS011;39172;45.550;12.072;2023-09-19T21:11:28;3.03;;;1.58;;
53287;SDS011;39172;45.550;12.072;2023-09-19T21:17:35;4.07;;;2.08;;
53287;SDS011;39172;45.550;12.072;2023-09-19T21:23:49;4.47;;;2.50;;
53287;SDS011;39172;45.550;12.072;2023-09-19T21:29:49;3.40;;;2.20;;
53287;SDS011;39172;45.550;12.072;2023-09-19T21:35:54;2.65;;;1.92;;
53287;SDS011;39172;45.550;12.072;2023-09-19T21:41:59;2.83;;;2.20;;
53287;SDS011;39172;45.550;12.072;2023-09-19T21:48:02;3.20;;;2.20;;
53287;SDS011;39172;45.550;12.072;2023-09-19T21:54:10;3.67;;;2.10;;
53287;SDS011;39172;45.550;12.072;2023-09-19T22:00:16;2.63;;;1.90;;
53287;SDS011;39172;45.550;12.072;2023-09-19T22:07:38;3.15;;;2.25;;
53287;SDS011;39172;45.550;12.072;2023-09-19T22:13:50;4.22;;;2.40;;
53287;SDS011;39172;45.550;12.072;2023-09-19T22:20:12;2.95;;;2.17;;
53287;SDS011;39172;45.550;12.072;2023-09-19T22:26:29;3.58;;;1.95;;
53287;SDS011;39172;45.550;12.072;2023-09-19T22:32:30;2.42;;;1.60;;
53287;SDS011;39172;45.550;12.072;2023-09-19T22:38:38;2.85;;;1.83;;
53287;SDS011;39172;45.550;12.072;2023-09-19T22:44:50;2.00;;;1.60;;
53287;SDS011;39172;45.550;12.072;2023-09-19T22:51:05;2.95;;;1.90;;
53287;SDS011;39172;45.550;12.072;2023-09-19T23:04:21;2.63;;;1.83;;
53287;SDS011;39172;45.550;12.072;2023-09-19T23:11:00;2.65;;;2.20;;
53287;SDS011;39172;45.550;12.072;2023-09-19T23:17:10;1.98;;;1.73;;
53287;SDS011;39172;45.550;12.072;2023-09-19T23:23:14;2.13;;;1.60;;
53287;SDS011;39172;45.550;12.072;2023-09-19T23:29:18;3.40;;;2.10;;
53287;SDS011;39172;45.550;12.072;2023-09-19T23:35:19;2.97;;;2.00;;
53287;SDS011;39172;45.550;12.072;2023-09-19T23:41:22;3.22;;;1.80;;
53287;SDS011;39172;45.550;12.072;2023-09-19T23:47:24;2.35;;;1.80;;
53287;SDS011;39172;45.550;12.072;2023-09-19T23:53:27;2.33;;;1.45;;
53287;SDS011;39172;45.550;12.072;2023-09-19T23:59:29;2.22;;;1.80;;
